9A5

Barwick Lafayette Airport

Lafayette, Georgia, USA
METAR K9A5 140735Z AUTO 00000KT 10SM OVC024 10/06 A3010 RMK AO2 T01000057
Observed Flight Rules
Dec-14 @ 07:35 UTC (42 minutes ago) Marginal Visual Flight Rules
Visibility Clouds
10 miles
  • Overcast at 2,400' AGL
Temperatures Readings
Current 10°C / 50°F
Dewpoint 6°C / 43°F
Humidity 76%
Altimeter 30.1" Hg
Pressure 1019 hPa
Elevation 237
METAR K9A5 140735Z AUTO 00000KT 10SM OVC024 10/06 A3010 RMK AO2 T01000057
Observed Flight Rules
Dec-14 @ 07:35 UTC
(42 minutes ago)
MVFR
Clouds
  • Overcast at 2,400' AGL
Temperature Dewpoint
10°C / 50°F 6°C / 43°F
Humidity Altimeter Pressure
76% 30.1" Hg 1019 hPa